Flight Track Log - Related Links

Times and Time Zones

All times are in EDT time to prevent confusion due to time zone crossing. See the PDT4226 flight status page for this flight to view local times or setup timezone preferences in your user account.

Time Position Orientation Groundspeed Altitude Reporting Facility
EDT Latitude Longitude Course Direction KTS MPH feet Rate Location/Type
Sun 03:55:00 PM 42.0464 -75.9266 180° South  Level Estimated
Sun 03:56:00 PM 41.9908 -75.9279 181° South  Level FlightAware Approximate
Sun 03:57:00 PM 41.9353 -75.9291 181° South  Level FlightAware Approximate
Sun 03:58:00 PM 41.8797 -75.9304 181° South  Level FlightAware Approximate
Sun 03:59:00 PM 41.8260 -75.9113 154° Southeast  Level Estimated
Sun 04:00:00 PM 41.7722 -75.8923 160° South  Level Estimated
Sun 04:01:00 PM 41.7184 -75.8734 159° South  Level Estimated
Sun 04:02:00 PM 41.6646 -75.8552 166° South  Level FlightAware Approximate
Sun 04:03:00 PM 41.6106 -75.8371 166° South  Level FlightAware Approximate
Sun 04:04:00 PM 41.5569 -75.8182 153° Southeast  Level Estimated
Sun 04:05:00 PM 41.5031 -75.7993 161° South  Level Estimated
Sun 04:06:00 PM 41.4510 -75.7736 160° South  Level FlightAware Approximate
Sun 04:07:00 PM 41.3988 -75.7480 160° South  Level FlightAware Approximate
Sun 04:08:00 PM 41.3450 -75.7297 162° South  Level Estimated
Sun 04:09:00 PM 41.2926 -75.7048 160° South  Level FlightAware Approximate
Sun 04:10:00 PM 41.2403 -75.6800 160° South  Level FlightAware Approximate
Sun 04:11:00 PM 41.1879 -75.6553 160° South  Level FlightAware Approximate
Sun 04:12:00 PM 41.1355 -75.6305 160° South  Level FlightAware Approximate
Sun 04:13:00 PM 41.0814 -75.6135 159° South  Level Estimated
Sun 04:14:00 PM 41.0274 -75.5965 163° South  Level Estimated
Sun 04:15:00 PM 40.9750 -75.5717 160° South  Level FlightAware Approximate
Sun 04:16:00 PM 40.9227 -75.5470 160° South  Level FlightAware Approximate
Sun 04:17:00 PM 40.8703 -75.5223 160° South  Level FlightAware Approximate
Sun 04:18:00 PM 40.8180 -75.4976 160° South  Level FlightAware Approximate
Sun 04:19:00 PM 40.7636 -75.4827 190° South  Level Estimated
Sun 04:20:00 PM 40.7080 -75.4863 183° South  Level FlightAware Approximate
Sun 04:20:32 PM 40.6667 -75.4667 197° South 209 241 5,000  Level Philadelphia TRACON
Sun 04:21:00 PM 40.6525 -75.4900 183° South  Level FlightAware Approximate
Sun 04:21:15 PM 40.6167 -75.4833 194° South 210 242 5,000  Level Philadelphia TRACON
Sun 04:22:00 PM 40.5970 -75.4936 183° South  Level FlightAware Approximate
Sun 04:22:15 PM 40.5500 -75.4667 169° South 218 251 5,100  Level Philadelphia TRACON
Sun 04:23:00 PM 40.5433 -75.4747 187° South  Level Estimated
Sun 04:23:15 PM 40.5000 -75.4500 166° South 220 253 5,000  Level Philadelphia TRACON
Sun 04:24:00 PM 40.4897 -75.4558 190° South  Level Estimated
Sun 04:24:15 PM 40.4500 -75.4333 166° South 225 259 5,000  Level Philadelphia TRACON
Sun 04:25:00 PM 40.4266 -75.4807 197° South  Level FlightAware Approximate
Sun 04:25:15 PM 40.3833 -75.4000 159° South 218 251 5,000  Level Philadelphia TRACON
Sun 04:26:15 PM 40.3333 -75.3667 153° Southeast 217 250 5,000  Level Philadelphia TRACON
Sun 04:27:21 PM 40.2667 -75.3333 159° South 219 252 5,000  Level Philadelphia TRACON
Sun 04:28:16 PM 40.2167 -75.3167 166° South 217 250 5,000 -300 Level Philadelphia TRACON
Sun 04:29:21 PM 40.1500 -75.2833 159° South 219 252 4,400 -480 Descending Philadelphia TRACON
Sun 04:30:21 PM 40.1000 -75.2500 153° Southeast 214 246 4,000 -200 Descending Philadelphia TRACON
Sun 04:31:21 PM 40.0500 -75.2167 153° Southeast 207 238 4,000  Level Philadelphia TRACON
Sun 04:32:16 PM 40.0000 -75.2000 166° South 211 243 4,000  Level Philadelphia TRACON
Sun 04:33:15 PM 39.9500 -75.1667 153° Southeast 215 247 4,000  Level Philadelphia TRACON
Sun 04:34:16 PM 39.8833 -75.1333 159° South 211 243 4,000  Level Philadelphia TRACON
Sun 04:35:16 PM 39.8333 -75.1167 166° South 215 247 4,000  Level Philadelphia TRACON
Sun 04:36:16 PM 39.7667 -75.0833 159° South 209 241 4,000 -300 Level Philadelphia TRACON
Sun 04:37:16 PM 39.7167 -75.0833 180° South 179 206 3,400 -600 Descending Philadelphia TRACON
Sun 04:38:16 PM 39.7167 -75.1500 270° West 165 190 2,800 -450 Descending Philadelphia TRACON
Sun 04:39:16 PM 39.7500 -75.1667 339° North 157 181 2,500 -450 Descending Philadelphia TRACON
Sun 04:40:16 PM 39.8000 -75.1833 346° North 155 178 1,900 -650 Descending Philadelphia TRACON
Sun 04:41:16 PM 39.8333 -75.2000 339° North 149 171 1,200 -800 Descending Philadelphia TRACON
Sun 04:42:16 PM 39.8667 -75.2167 339° North 97 112 300 -900 Descending Philadelphia TRACON

Login

Don't have an account? Register now (free) for customized features, flight alerts, and more!